sensor_id;sensor_type;location;lat;lon;timestamp;P1;durP1;ratioP1;P2;durP2;ratioP2
24813;SDS011;12904;50.088;11.414;2023-10-13T00:01:24;17.17;;;11.90;;
24813;SDS011;12904;50.088;11.414;2023-10-13T00:03:50;21.50;;;12.82;;
24813;SDS011;12904;50.088;11.414;2023-10-13T00:06:19;15.15;;;13.20;;
24813;SDS011;12904;50.088;11.414;2023-10-13T00:08:45;22.40;;;12.43;;
24813;SDS011;12904;50.088;11.414;2023-10-13T00:11:14;18.85;;;11.38;;
24813;SDS011;12904;50.088;11.414;2023-10-13T00:13:40;20.60;;;10.77;;
24813;SDS011;12904;50.088;11.414;2023-10-13T00:16:08;14.95;;;11.77;;
24813;SDS011;12904;50.088;11.414;2023-10-13T00:18:42;14.70;;;11.27;;
24813;SDS011;12904;50.088;11.414;2023-10-13T00:21:09;19.17;;;11.25;;
24813;SDS011;12904;50.088;11.414;2023-10-13T00:23:41;13.60;;;11.52;;
24813;SDS011;12904;50.088;11.414;2023-10-13T00:26:17;14.55;;;11.18;;
24813;SDS011;12904;50.088;11.414;2023-10-13T00:28:43;13.77;;;11.48;;
24813;SDS011;12904;50.088;11.414;2023-10-13T00:31:12;14.93;;;12.55;;
24813;SDS011;12904;50.088;11.414;2023-10-13T00:33:42;15.63;;;10.52;;
24813;SDS011;12904;50.088;11.414;2023-10-13T00:36:08;16.58;;;10.90;;
24813;SDS011;12904;50.088;11.414;2023-10-13T00:38:41;12.75;;;11.32;;
24813;SDS011;12904;50.088;11.414;2023-10-13T00:41:07;18.63;;;11.80;;
24813;SDS011;12904;50.088;11.414;2023-10-13T00:43:48;20.67;;;11.45;;
24813;SDS011;12904;50.088;11.414;2023-10-13T00:46:32;19.15;;;11.40;;
24813;SDS011;12904;50.088;11.414;2023-10-13T00:49:01;17.55;;;10.68;;
24813;SDS011;12904;50.088;11.414;2023-10-13T00:51:33;32.30;;;12.27;;
24813;SDS011;12904;50.088;11.414;2023-10-13T00:54:06;23.13;;;13.95;;
24813;SDS011;12904;50.088;11.414;2023-10-13T00:56:40;16.33;;;12.40;;
24813;SDS011;12904;50.088;11.414;2023-10-13T00:59:15;22.08;;;11.50;;
24813;SDS011;12904;50.088;11.414;2023-10-13T01:01:41;18.13;;;12.35;;
24813;SDS011;12904;50.088;11.414;2023-10-13T01:04:10;14.82;;;12.13;;
24813;SDS011;12904;50.088;11.414;2023-10-13T01:06:39;14.23;;;12.48;;
24813;SDS011;12904;50.088;11.414;2023-10-13T01:09:08;19.88;;;12.85;;
24813;SDS011;12904;50.088;11.414;2023-10-13T01:11:48;20.10;;;12.65;;
24813;SDS011;12904;50.088;11.414;2023-10-13T01:14:19;20.30;;;11.20;;
24813;SDS011;12904;50.088;11.414;2023-10-13T01:16:45;16.10;;;12.13;;
24813;SDS011;12904;50.088;11.414;2023-10-13T01:19:15;31.25;;;13.27;;
24813;SDS011;12904;50.088;11.414;2023-10-13T01:21:49;20.33;;;12.63;;
24813;SDS011;12904;50.088;11.414;2023-10-13T01:24:22;29.42;;;12.65;;
24813;SDS011;12904;50.088;11.414;2023-10-13T01:26:49;35.00;;;12.80;;
24813;SDS011;12904;50.088;11.414;2023-10-13T01:29:16;15.88;;;11.45;;
24813;SDS011;12904;50.088;11.414;2023-10-13T01:31:44;24.88;;;11.95;;
24813;SDS011;12904;50.088;11.414;2023-10-13T01:34:11;16.63;;;11.90;;
24813;SDS011;12904;50.088;11.414;2023-10-13T01:36:54;19.70;;;13.30;;
24813;SDS011;12904;50.088;11.414;2023-10-13T01:39:21;18.02;;;13.05;;
24813;SDS011;12904;50.088;11.414;2023-10-13T01:41:51;20.27;;;12.50;;
24813;SDS011;12904;50.088;11.414;2023-10-13T01:44:26;26.88;;;12.68;;
24813;SDS011;12904;50.088;11.414;2023-10-13T01:46:58;23.08;;;13.10;;
24813;SDS011;12904;50.088;11.414;2023-10-13T01:49:31;14.40;;;11.15;;
24813;SDS011;12904;50.088;11.414;2023-10-13T01:52:12;21.75;;;12.38;;
24813;SDS011;12904;50.088;11.414;2023-10-13T01:54:42;18.80;;;12.55;;
24813;SDS011;12904;50.088;11.414;2023-10-13T01:57:10;19.88;;;12.45;;
24813;SDS011;12904;50.088;11.414;2023-10-13T01:59:41;17.92;;;12.45;;
24813;SDS011;12904;50.088;11.414;2023-10-13T02:02:09;19.75;;;12.98;;
24813;SDS011;12904;50.088;11.414;2023-10-13T02:04:40;15.63;;;12.23;;
24813;SDS011;12904;50.088;11.414;2023-10-13T02:07:25;24.70;;;14.05;;
24813;SDS011;12904;50.088;11.414;2023-10-13T02:09:59;16.35;;;12.88;;
24813;SDS011;12904;50.088;11.414;2023-10-13T02:12:29;24.23;;;13.60;;
24813;SDS011;12904;50.088;11.414;2023-10-13T02:15:08;28.25;;;13.93;;
24813;SDS011;12904;50.088;11.414;2023-10-13T02:17:57;20.77;;;14.77;;
24813;SDS011;12904;50.088;11.414;2023-10-13T02:20:25;25.33;;;13.93;;
24813;SDS011;12904;50.088;11.414;2023-10-13T02:22:59;27.05;;;15.68;;
24813;SDS011;12904;50.088;11.414;2023-10-13T02:25:24;24.83;;;16.20;;
24813;SDS011;12904;50.088;11.414;2023-10-13T02:28:22;30.98;;;18.50;;
24813;SDS011;12904;50.088;11.414;2023-10-13T02:30:53;31.15;;;18.95;;
24813;SDS011;12904;50.088;11.414;2023-10-13T02:33:19;35.20;;;19.45;;
24813;SDS011;12904;50.088;11.414;2023-10-13T02:35:48;40.72;;;20.67;;
24813;SDS011;12904;50.088;11.414;2023-10-13T02:38:20;32.70;;;20.20;;
24813;SDS011;12904;50.088;11.414;2023-10-13T02:41:14;37.20;;;20.77;;
24813;SDS011;12904;50.088;11.414;2023-10-13T02:43:50;31.13;;;19.67;;
24813;SDS011;12904;50.088;11.414;2023-10-13T02:46:17;32.60;;;19.83;;
24813;SDS011;12904;50.088;11.414;2023-10-13T02:48:46;27.77;;;18.08;;
24813;SDS011;12904;50.088;11.414;2023-10-13T02:51:18;29.45;;;18.35;;
24813;SDS011;12904;50.088;11.414;2023-10-13T02:53:48;26.77;;;17.10;;
24813;SDS011;12904;50.088;11.414;2023-10-13T02:56:15;28.30;;;17.52;;
24813;SDS011;12904;50.088;11.414;2023-10-13T02:58:50;23.65;;;16.58;;
24813;SDS011;12904;50.088;11.414;2023-10-13T03:01:29;27.38;;;14.90;;
24813;SDS011;12904;50.088;11.414;2023-10-13T03:03:59;21.40;;;15.93;;
24813;SDS011;12904;50.088;11.414;2023-10-13T03:06:25;22.77;;;15.85;;
24813;SDS011;12904;50.088;11.414;2023-10-13T03:08:58;26.38;;;15.70;;
24813;SDS011;12904;50.088;11.414;2023-10-13T03:11:39;19.65;;;15.57;;
24813;SDS011;12904;50.088;11.414;2023-10-13T03:14:07;23.73;;;16.35;;
24813;SDS011;12904;50.088;11.414;2023-10-13T03:16:45;22.58;;;16.40;;
24813;SDS011;12904;50.088;11.414;2023-10-13T03:19:10;23.88;;;16.63;;
24813;SDS011;12904;50.088;11.414;2023-10-13T03:21:36;19.00;;;16.80;;
24813;SDS011;12904;50.088;11.414;2023-10-13T03:24:01;28.90;;;18.38;;
24813;SDS011;12904;50.088;11.414;2023-10-13T03:26:32;29.83;;;19.30;;
24813;SDS011;12904;50.088;11.414;2023-10-13T03:29:02;34.78;;;18.85;;
24813;SDS011;12904;50.088;11.414;2023-10-13T03:31:32;34.78;;;19.63;;
24813;SDS011;12904;50.088;11.414;2023-10-13T03:34:02;37.47;;;18.55;;
24813;SDS011;12904;50.088;11.414;2023-10-13T03:36:35;30.27;;;18.20;;
24813;SDS011;12904;50.088;11.414;2023-10-13T03:39:19;35.08;;;19.25;;
24813;SDS011;12904;50.088;11.414;2023-10-13T03:41:51;28.38;;;18.90;;
24813;SDS011;12904;50.088;11.414;2023-10-13T03:44:19;32.17;;;18.10;;
24813;SDS011;12904;50.088;11.414;2023-10-13T03:46:45;23.40;;;16.80;;
24813;SDS011;12904;50.088;11.414;2023-10-13T03:49:13;24.10;;;17.98;;
24813;SDS011;12904;50.088;11.414;2023-10-13T03:51:47;24.92;;;16.25;;
24813;SDS011;12904;50.088;11.414;2023-10-13T03:54:13;30.10;;;17.35;;
24813;SDS011;12904;50.088;11.414;2023-10-13T03:56:41;20.70;;;17.48;;
24813;SDS011;12904;50.088;11.414;2023-10-13T03:59:10;23.35;;;17.10;;
24813;SDS011;12904;50.088;11.414;2023-10-13T04:01:42;29.00;;;17.90;;
24813;SDS011;12904;50.088;11.414;2023-10-13T04:04:17;27.20;;;18.05;;
24813;SDS011;12904;50.088;11.414;2023-10-13T04:07:02;28.58;;;18.48;;
24813;SDS011;12904;50.088;11.414;2023-10-13T04:09:35;29.95;;;18.85;;
24813;SDS011;12904;50.088;11.414;2023-10-13T04:12:02;30.88;;;16.98;;
24813;SDS011;12904;50.088;11.414;2023-10-13T04:14:31;25.90;;;17.02;;
24813;SDS011;12904;50.088;11.414;2023-10-13T04:17:09;25.80;;;16.98;;
24813;SDS011;12904;50.088;11.414;2023-10-13T04:19:47;25.85;;;16.80;;
24813;SDS011;12904;50.088;11.414;2023-10-13T04:22:41;26.75;;;16.83;;
24813;SDS011;12904;50.088;11.414;2023-10-13T04:25:14;31.25;;;15.90;;
24813;SDS011;12904;50.088;11.414;2023-10-13T04:28:03;21.50;;;14.45;;
24813;SDS011;12904;50.088;11.414;2023-10-13T04:30:42;20.90;;;14.43;;
24813;SDS011;12904;50.088;11.414;2023-10-13T04:36:06;22.30;;;16.35;;
24813;SDS011;12904;50.088;11.414;2023-10-13T04:38:48;32.28;;;15.90;;
24813;SDS011;12904;50.088;11.414;2023-10-13T04:41:25;27.70;;;16.10;;
24813;SDS011;12904;50.088;11.414;2023-10-13T04:44:07;29.77;;;17.08;;
24813;SDS011;12904;50.088;11.414;2023-10-13T04:49:37;27.17;;;17.63;;
24813;SDS011;12904;50.088;11.414;2023-10-13T04:52:07;25.83;;;17.98;;
24813;SDS011;12904;50.088;11.414;2023-10-13T04:54:33;27.58;;;17.02;;
24813;SDS011;12904;50.088;11.414;2023-10-13T04:57:24;22.43;;;16.67;;
24813;SDS011;12904;50.088;11.414;2023-10-13T05:00:08;26.50;;;18.05;;
24813;SDS011;12904;50.088;11.414;2023-10-13T05:02:41;27.60;;;16.77;;
24813;SDS011;12904;50.088;11.414;2023-10-13T05:05:25;32.50;;;15.90;;
24813;SDS011;12904;50.088;11.414;2023-10-13T05:08:11;27.60;;;15.82;;
24813;SDS011;12904;50.088;11.414;2023-10-13T05:10:56;24.60;;;16.92;;
24813;SDS011;12904;50.088;11.414;2023-10-13T05:14:00;29.30;;;16.48;;
24813;SDS011;12904;50.088;11.414;2023-10-13T05:16:44;25.85;;;16.92;;
24813;SDS011;12904;50.088;11.414;2023-10-13T05:19:28;32.00;;;16.92;;
24813;SDS011;12904;50.088;11.414;2023-10-13T05:22:13;28.17;;;17.30;;
24813;SDS011;12904;50.088;11.414;2023-10-13T05:24:57;33.78;;;17.40;;
24813;SDS011;12904;50.088;11.414;2023-10-13T05:27:41;31.77;;;18.00;;
24813;SDS011;12904;50.088;11.414;2023-10-13T05:30:25;28.83;;;17.95;;
24813;SDS011;12904;50.088;11.414;2023-10-13T05:33:10;33.20;;;17.75;;
24813;SDS011;12904;50.088;11.414;2023-10-13T05:35:54;30.88;;;18.08;;
24813;SDS011;12904;50.088;11.414;2023-10-13T05:38:38;35.42;;;19.75;;
24813;SDS011;12904;50.088;11.414;2023-10-13T05:41:22;28.05;;;18.58;;
24813;SDS011;12904;50.088;11.414;2023-10-13T05:44:07;31.77;;;19.52;;
24813;SDS011;12904;50.088;11.414;2023-10-13T05:46:51;34.22;;;18.55;;
24813;SDS011;12904;50.088;11.414;2023-10-13T05:49:43;26.58;;;17.40;;
24813;SDS011;12904;50.088;11.414;2023-10-13T05:52:16;27.40;;;18.08;;
24813;SDS011;12904;50.088;11.414;2023-10-13T05:55:04;28.70;;;17.67;;
24813;SDS011;12904;50.088;11.414;2023-10-13T05:57:49;20.40;;;16.23;;
24813;SDS011;12904;50.088;11.414;2023-10-13T06:00:37;24.25;;;16.50;;
24813;SDS011;12904;50.088;11.414;2023-10-13T06:03:22;24.30;;;17.52;;
24813;SDS011;12904;50.088;11.414;2023-10-13T06:06:07;31.75;;;17.80;;
24813;SDS011;12904;50.088;11.414;2023-10-13T06:08:51;29.83;;;17.63;;
24813;SDS011;12904;50.088;11.414;2023-10-13T06:11:35;28.92;;;16.88;;
24813;SDS011;12904;50.088;11.414;2023-10-13T06:14:20;31.17;;;17.00;;
24813;SDS011;12904;50.088;11.414;2023-10-13T06:17:04;30.25;;;18.15;;
24813;SDS011;12904;50.088;11.414;2023-10-13T06:19:48;41.65;;;18.17;;
24813;SDS011;12904;50.088;11.414;2023-10-13T06:22:32;23.63;;;16.58;;
24813;SDS011;12904;50.088;11.414;2023-10-13T06:25:17;26.52;;;18.80;;
24813;SDS011;12904;50.088;11.414;2023-10-13T06:28:01;27.70;;;17.73;;
24813;SDS011;12904;50.088;11.414;2023-10-13T06:30:53;28.00;;;17.85;;
24813;SDS011;12904;50.088;11.414;2023-10-13T06:33:23;34.80;;;19.60;;
24813;SDS011;12904;50.088;11.414;2023-10-13T06:35:53;37.88;;;19.05;;
24813;SDS011;12904;50.088;11.414;2023-10-13T06:38:23;21.58;;;16.65;;
24813;SDS011;12904;50.088;11.414;2023-10-13T06:40:49;21.38;;;16.60;;
24813;SDS011;12904;50.088;11.414;2023-10-13T06:43:17;21.95;;;15.65;;
24813;SDS011;12904;50.088;11.414;2023-10-13T06:45:46;17.15;;;14.70;;
24813;SDS011;12904;50.088;11.414;2023-10-13T06:48:22;23.77;;;15.73;;
24813;SDS011;12904;50.088;11.414;2023-10-13T06:50:51;17.42;;;12.98;;
24813;SDS011;12904;50.088;11.414;2023-10-13T06:53:20;17.75;;;13.63;;
24813;SDS011;12904;50.088;11.414;2023-10-13T06:55:45;18.30;;;13.95;;
24813;SDS011;12904;50.088;11.414;2023-10-13T06:58:17;27.35;;;14.02;;
24813;SDS011;12904;50.088;11.414;2023-10-13T07:03:22;21.85;;;15.45;;
24813;SDS011;12904;50.088;11.414;2023-10-13T07:05:50;24.42;;;13.18;;
24813;SDS011;12904;50.088;11.414;2023-10-13T07:08:17;19.80;;;14.35;;
24813;SDS011;12904;50.088;11.414;2023-10-13T07:10:51;18.70;;;11.85;;
24813;SDS011;12904;50.088;11.414;2023-10-13T07:13:27;19.98;;;12.95;;
24813;SDS011;12904;50.088;11.414;2023-10-13T07:15:54;20.77;;;13.10;;
24813;SDS011;12904;50.088;11.414;2023-10-13T07:18:31;12.18;;;10.98;;
24813;SDS011;12904;50.088;11.414;2023-10-13T07:21:02;14.47;;;12.27;;
24813;SDS011;12904;50.088;11.414;2023-10-13T07:23:35;15.52;;;11.45;;
24813;SDS011;12904;50.088;11.414;2023-10-13T07:26:01;15.25;;;11.07;;
24813;SDS011;12904;50.088;11.414;2023-10-13T07:28:30;18.33;;;10.13;;
24813;SDS011;12904;50.088;11.414;2023-10-13T07:31:01;14.63;;;10.32;;
24813;SDS011;12904;50.088;11.414;2023-10-13T07:33:29;15.68;;;9.88;;
24813;SDS011;12904;50.088;11.414;2023-10-13T07:36:05;12.02;;;9.80;;
24813;SDS011;12904;50.088;11.414;2023-10-13T07:38:53;13.55;;;9.02;;
24813;SDS011;12904;50.088;11.414;2023-10-13T07:41:45;13.38;;;9.13;;
24813;SDS011;12904;50.088;11.414;2023-10-13T07:44:16;13.05;;;8.85;;
24813;SDS011;12904;50.088;11.414;2023-10-13T07:46:45;13.48;;;8.45;;
24813;SDS011;12904;50.088;11.414;2023-10-13T07:49:14;14.68;;;9.13;;
24813;SDS011;12904;50.088;11.414;2023-10-13T07:51:40;8.43;;;7.50;;
24813;SDS011;12904;50.088;11.414;2023-10-13T07:54:18;12.60;;;8.10;;
24813;SDS011;12904;50.088;11.414;2023-10-13T07:56:49;12.93;;;7.68;;
24813;SDS011;12904;50.088;11.414;2023-10-13T07:59:15;11.40;;;7.00;;
24813;SDS011;12904;50.088;11.414;2023-10-13T08:01:41;11.80;;;7.05;;
24813;SDS011;12904;50.088;11.414;2023-10-13T08:04:10;13.13;;;6.72;;
24813;SDS011;12904;50.088;11.414;2023-10-13T08:06:36;10.45;;;7.15;;
24813;SDS011;12904;50.088;11.414;2023-10-13T08:09:06;11.65;;;7.80;;
24813;SDS011;12904;50.088;11.414;2023-10-13T08:11:50;10.95;;;6.97;;
24813;SDS011;12904;50.088;11.414;2023-10-13T08:14:19;7.93;;;7.07;;
24813;SDS011;12904;50.088;11.414;2023-10-13T08:16:48;8.88;;;6.70;;
24813;SDS011;12904;50.088;11.414;2023-10-13T08:19:17;11.07;;;7.07;;
24813;SDS011;12904;50.088;11.414;2023-10-13T08:21:53;10.90;;;6.13;;
24813;SDS011;12904;50.088;11.414;2023-10-13T08:24:39;11.02;;;6.65;;
24813;SDS011;12904;50.088;11.414;2023-10-13T08:27:05;6.82;;;5.68;;
24813;SDS011;12904;50.088;11.414;2023-10-13T08:29:51;9.90;;;7.10;;
24813;SDS011;12904;50.088;11.414;2023-10-13T08:32:19;10.05;;;6.25;;
24813;SDS011;12904;50.088;11.414;2023-10-13T08:37:20;10.32;;;6.60;;
24813;SDS011;12904;50.088;11.414;2023-10-13T08:39:47;13.45;;;7.05;;
24813;SDS011;12904;50.088;11.414;2023-10-13T08:42:34;10.25;;;6.38;;
24813;SDS011;12904;50.088;11.414;2023-10-13T08:45:08;9.38;;;6.40;;
24813;SDS011;12904;50.088;11.414;2023-10-13T08:48:06;17.90;;;6.50;;
24813;SDS011;12904;50.088;11.414;2023-10-13T08:50:48;10.88;;;7.43;;
24813;SDS011;12904;50.088;11.414;2023-10-13T08:53:19;11.05;;;6.80;;
24813;SDS011;12904;50.088;11.414;2023-10-13T08:56:08;14.38;;;6.43;;
24813;SDS011;12904;50.088;11.414;2023-10-13T09:01:21;9.60;;;7.05;;
24813;SDS011;12904;50.088;11.414;2023-10-13T09:04:08;12.13;;;7.50;;
24813;SDS011;12904;50.088;11.414;2023-10-13T09:06:51;15.73;;;7.47;;
24813;SDS011;12904;50.088;11.414;2023-10-13T09:09:45;9.70;;;7.05;;
24813;SDS011;12904;50.088;11.414;2023-10-13T09:12:14;9.57;;;5.90;;
24813;SDS011;12904;50.088;11.414;2023-10-13T09:14:52;10.43;;;7.00;;
24813;SDS011;12904;50.088;11.414;2023-10-13T09:17:23;9.15;;;6.10;;
24813;SDS011;12904;50.088;11.414;2023-10-13T09:19:59;9.82;;;7.20;;
24813;SDS011;12904;50.088;11.414;2023-10-13T09:22:45;11.32;;;6.60;;
24813;SDS011;12904;50.088;11.414;2023-10-13T09:27:59;7.78;;;6.07;;
24813;SDS011;12904;50.088;11.414;2023-10-13T09:30:25;9.48;;;6.50;;
24813;SDS011;12904;50.088;11.414;2023-10-13T09:32:59;8.52;;;5.05;;
24813;SDS011;12904;50.088;11.414;2023-10-13T09:35:41;8.90;;;6.13;;
24813;SDS011;12904;50.088;11.414;2023-10-13T09:38:16;10.77;;;5.65;;
24813;SDS011;12904;50.088;11.414;2023-10-13T09:40:43;12.15;;;5.43;;
24813;SDS011;12904;50.088;11.414;2023-10-13T09:43:18;11.65;;;5.47;;
24813;SDS011;12904;50.088;11.414;2023-10-13T09:45:47;7.47;;;4.38;;
24813;SDS011;12904;50.088;11.414;2023-10-13T09:48:37;8.50;;;5.50;;
24813;SDS011;12904;50.088;11.414;2023-10-13T09:51:06;11.93;;;5.75;;
24813;SDS011;12904;50.088;11.414;2023-10-13T09:56:32;11.48;;;5.07;;
24813;SDS011;12904;50.088;11.414;2023-10-13T09:59:17;9.38;;;4.60;;
24813;SDS011;12904;50.088;11.414;2023-10-13T10:01:47;11.15;;;4.88;;
24813;SDS011;12904;50.088;11.414;2023-10-13T10:04:17;7.68;;;5.43;;
24813;SDS011;12904;50.088;11.414;2023-10-13T10:06:56;7.65;;;4.90;;
24813;SDS011;12904;50.088;11.414;2023-10-13T10:09:31;5.38;;;4.88;;
24813;SDS011;12904;50.088;11.414;2023-10-13T10:17:14;9.43;;;5.13;;
24813;SDS011;12904;50.088;11.414;2023-10-13T10:22:28;14.63;;;4.18;;
24813;SDS011;12904;50.088;11.414;2023-10-13T10:25:05;6.43;;;3.85;;
24813;SDS011;12904;50.088;11.414;2023-10-13T10:27:55;6.03;;;4.30;;
24813;SDS011;12904;50.088;11.414;2023-10-13T10:30:27;10.75;;;4.00;;
24813;SDS011;12904;50.088;11.414;2023-10-13T10:32:54;6.97;;;3.87;;
24813;SDS011;12904;50.088;11.414;2023-10-13T10:35:37;8.73;;;3.92;;
24813;SDS011;12904;50.088;11.414;2023-10-13T10:38:08;7.63;;;4.35;;
24813;SDS011;12904;50.088;11.414;2023-10-13T10:40:48;8.55;;;4.45;;
24813;SDS011;12904;50.088;11.414;2023-10-13T10:43:30;8.93;;;4.18;;
24813;SDS011;12904;50.088;11.414;2023-10-13T10:49:05;9.43;;;4.32;;
24813;SDS011;12904;50.088;11.414;2023-10-13T10:51:33;6.80;;;4.03;;
24813;SDS011;12904;50.088;11.414;2023-10-13T10:54:17;5.22;;;3.90;;
24813;SDS011;12904;50.088;11.414;2023-10-13T10:56:43;10.48;;;4.25;;
24813;SDS011;12904;50.088;11.414;2023-10-13T10:59:17;9.57;;;4.57;;
24813;SDS011;12904;50.088;11.414;2023-10-13T11:01:45;6.53;;;3.88;;
24813;SDS011;12904;50.088;11.414;2023-10-13T11:04:17;7.45;;;3.72;;
24813;SDS011;12904;50.088;11.414;2023-10-13T11:06:55;7.00;;;3.60;;
24813;SDS011;12904;50.088;11.414;2023-10-13T11:09:26;8.05;;;4.22;;
24813;SDS011;12904;50.088;11.414;2023-10-13T11:12:14;6.45;;;4.30;;
24813;SDS011;12904;50.088;11.414;2023-10-13T11:14:41;6.35;;;3.83;;
24813;SDS011;12904;50.088;11.414;2023-10-13T11:17:11;6.55;;;3.60;;
24813;SDS011;12904;50.088;11.414;2023-10-13T11:19:51;6.78;;;3.70;;
24813;SDS011;12904;50.088;11.414;2023-10-13T11:22:21;6.80;;;3.38;;
24813;SDS011;12904;50.088;11.414;2023-10-13T11:25:07;5.20;;;3.80;;
24813;SDS011;12904;50.088;11.414;2023-10-13T11:27:39;7.80;;;4.40;;
24813;SDS011;12904;50.088;11.414;2023-10-13T11:30:15;6.80;;;3.90;;
24813;SDS011;12904;50.088;11.414;2023-10-13T11:35:26;8.05;;;4.05;;
24813;SDS011;12904;50.088;11.414;2023-10-13T11:38:12;7.07;;;4.00;;
24813;SDS011;12904;50.088;11.414;2023-10-13T11:40:41;5.68;;;3.80;;
24813;SDS011;12904;50.088;11.414;2023-10-13T11:43:24;10.13;;;4.00;;
24813;SDS011;12904;50.088;11.414;2023-10-13T11:45:50;8.00;;;3.55;;
24813;SDS011;12904;50.088;11.414;2023-10-13T11:48:37;6.32;;;3.72;;
24813;SDS011;12904;50.088;11.414;2023-10-13T11:51:07;4.03;;;3.22;;
24813;SDS011;12904;50.088;11.414;2023-10-13T11:53:37;8.52;;;4.28;;
24813;SDS011;12904;50.088;11.414;2023-10-13T11:56:03;5.97;;;3.47;;
24813;SDS011;12904;50.088;11.414;2023-10-13T11:58:36;4.78;;;3.45;;
24813;SDS011;12904;50.088;11.414;2023-10-13T12:01:05;12.00;;;3.85;;
24813;SDS011;12904;50.088;11.414;2023-10-13T12:03:37;7.72;;;3.72;;
24813;SDS011;12904;50.088;11.414;2023-10-13T12:06:22;5.10;;;3.63;;
24813;SDS011;12904;50.088;11.414;2023-10-13T12:08:47;11.43;;;4.28;;
24813;SDS011;12904;50.088;11.414;2023-10-13T12:11:17;7.38;;;4.10;;
24813;SDS011;12904;50.088;11.414;2023-10-13T12:13:55;4.93;;;3.35;;
24813;SDS011;12904;50.088;11.414;2023-10-13T12:16:21;6.00;;;4.07;;
24813;SDS011;12904;50.088;11.414;2023-10-13T12:18:47;4.32;;;3.03;;
24813;SDS011;12904;50.088;11.414;2023-10-13T12:23:46;7.82;;;3.72;;
24813;SDS011;12904;50.088;11.414;2023-10-13T12:26:12;4.43;;;3.22;;
24813;SDS011;12904;50.088;11.414;2023-10-13T12:28:57;4.43;;;3.13;;
24813;SDS011;12904;50.088;11.414;2023-10-13T12:31:31;3.92;;;3.10;;
24813;SDS011;12904;50.088;11.414;2023-10-13T12:34:04;6.63;;;3.45;;
24813;SDS011;12904;50.088;11.414;2023-10-13T12:36:39;8.38;;;4.05;;
24813;SDS011;12904;50.088;11.414;2023-10-13T12:39:18;4.28;;;2.90;;
24813;SDS011;12904;50.088;11.414;2023-10-13T12:42:02;4.65;;;3.22;;
24813;SDS011;12904;50.088;11.414;2023-10-13T12:44:47;5.78;;;3.75;;
24813;SDS011;12904;50.088;11.414;2023-10-13T12:47:32;7.93;;;3.60;;
24813;SDS011;12904;50.088;11.414;2023-10-13T12:50:17;8.45;;;3.88;;
24813;SDS011;12904;50.088;11.414;2023-10-13T12:52:59;9.52;;;4.03;;
24813;SDS011;12904;50.088;11.414;2023-10-13T12:55:25;6.88;;;3.63;;
24813;SDS011;12904;50.088;11.414;2023-10-13T12:57:50;9.07;;;3.30;;
24813;SDS011;12904;50.088;11.414;2023-10-13T13:00:16;12.65;;;3.60;;
24813;SDS011;12904;50.088;11.414;2023-10-13T13:02:46;7.97;;;3.30;;
24813;SDS011;12904;50.088;11.414;2023-10-13T13:05:11;4.00;;;2.88;;
24813;SDS011;12904;50.088;11.414;2023-10-13T13:07:38;6.38;;;3.35;;
24813;SDS011;12904;50.088;11.414;2023-10-13T13:10:17;5.75;;;3.25;;
24813;SDS011;12904;50.088;11.414;2023-10-13T13:12:43;7.32;;;3.33;;
24813;SDS011;12904;50.088;11.414;2023-10-13T13:15:09;4.47;;;3.03;;
24813;SDS011;12904;50.088;11.414;2023-10-13T13:17:37;5.57;;;3.50;;
24813;SDS011;12904;50.088;11.414;2023-10-13T13:20:06;8.25;;;3.83;;
24813;SDS011;12904;50.088;11.414;2023-10-13T13:22:39;6.55;;;3.45;;
24813;SDS011;12904;50.088;11.414;2023-10-13T13:25:05;11.45;;;3.38;;
24813;SDS011;12904;50.088;11.414;2023-10-13T13:27:34;6.13;;;3.60;;
24813;SDS011;12904;50.088;11.414;2023-10-13T13:29:59;5.85;;;3.58;;
24813;SDS011;12904;50.088;11.414;2023-10-13T13:32:25;6.68;;;3.10;;
24813;SDS011;12904;50.088;11.414;2023-10-13T13:34:53;6.20;;;3.10;;
24813;SDS011;12904;50.088;11.414;2023-10-13T13:37:22;8.32;;;3.38;;
24813;SDS011;12904;50.088;11.414;2023-10-13T13:39:48;6.15;;;3.55;;
24813;SDS011;12904;50.088;11.414;2023-10-13T13:42:17;6.53;;;3.53;;
24813;SDS011;12904;50.088;11.414;2023-10-13T13:44:46;8.18;;;3.38;;
24813;SDS011;12904;50.088;11.414;2023-10-13T13:47:15;6.07;;;3.33;;
24813;SDS011;12904;50.088;11.414;2023-10-13T13:49:42;5.05;;;3.45;;
24813;SDS011;12904;50.088;11.414;2023-10-13T13:52:16;9.20;;;3.25;;
24813;SDS011;12904;50.088;11.414;2023-10-13T13:54:46;6.55;;;3.33;;
24813;SDS011;12904;50.088;11.414;2023-10-13T13:57:12;9.77;;;3.45;;
24813;SDS011;12904;50.088;11.414;2023-10-13T13:59:39;7.07;;;3.78;;
24813;SDS011;12904;50.088;11.414;2023-10-13T14:02:10;6.05;;;3.50;;
24813;SDS011;12904;50.088;11.414;2023-10-13T14:04:45;6.22;;;3.50;;
24813;SDS011;12904;50.088;11.414;2023-10-13T14:07:12;19.27;;;3.75;;
24813;SDS011;12904;50.088;11.414;2023-10-13T14:09:40;7.47;;;3.53;;
24813;SDS011;12904;50.088;11.414;2023-10-13T14:12:08;5.72;;;2.88;;
24813;SDS011;12904;50.088;11.414;2023-10-13T14:14:53;6.07;;;3.30;;
24813;SDS011;12904;50.088;11.414;2023-10-13T14:17:22;4.55;;;3.33;;
24813;SDS011;12904;50.088;11.414;2023-10-13T14:19:57;6.20;;;3.30;;
24813;SDS011;12904;50.088;11.414;2023-10-13T14:22:23;6.35;;;3.28;;
24813;SDS011;12904;50.088;11.414;2023-10-13T14:24:52;5.18;;;3.10;;
24813;SDS011;12904;50.088;11.414;2023-10-13T14:27:20;5.03;;;3.47;;
24813;SDS011;12904;50.088;11.414;2023-10-13T14:29:51;6.38;;;3.33;;
24813;SDS011;12904;50.088;11.414;2023-10-13T14:32:21;4.88;;;3.00;;
24813;SDS011;12904;50.088;11.414;2023-10-13T14:34:50;9.02;;;3.72;;
24813;SDS011;12904;50.088;11.414;2023-10-13T14:37:25;6.82;;;3.85;;
24813;SDS011;12904;50.088;11.414;2023-10-13T14:39:57;8.30;;;3.00;;
24813;SDS011;12904;50.088;11.414;2023-10-13T14:42:23;5.15;;;3.00;;
24813;SDS011;12904;50.088;11.414;2023-10-13T14:44:50;4.82;;;3.00;;
24813;SDS011;12904;50.088;11.414;2023-10-13T14:47:21;5.33;;;3.07;;
24813;SDS011;12904;50.088;11.414;2023-10-13T14:49:51;4.63;;;3.30;;
24813;SDS011;12904;50.088;11.414;2023-10-13T14:52:19;8.38;;;3.53;;
24813;SDS011;12904;50.088;11.414;2023-10-13T14:54:46;11.40;;;3.05;;
24813;SDS011;12904;50.088;11.414;2023-10-13T14:57:13;6.18;;;2.95;;
24813;SDS011;12904;50.088;11.414;2023-10-13T14:59:38;7.90;;;3.00;;
24813;SDS011;12904;50.088;11.414;2023-10-13T15:02:04;6.47;;;3.40;;
24813;SDS011;12904;50.088;11.414;2023-10-13T15:04:30;8.43;;;3.38;;
24813;SDS011;12904;50.088;11.414;2023-10-13T15:06:59;8.43;;;3.08;;
24813;SDS011;12904;50.088;11.414;2023-10-13T15:09:27;6.68;;;2.90;;
24813;SDS011;12904;50.088;11.414;2023-10-13T15:11:53;9.40;;;3.42;;
24813;SDS011;12904;50.088;11.414;2023-10-13T15:14:19;8.40;;;3.00;;
24813;SDS011;12904;50.088;11.414;2023-10-13T15:16:45;9.82;;;3.47;;
24813;SDS011;12904;50.088;11.414;2023-10-13T15:19:11;6.03;;;3.00;;
24813;SDS011;12904;50.088;11.414;2023-10-13T15:21:37;10.60;;;3.45;;
24813;SDS011;12904;50.088;11.414;2023-10-13T15:24:05;10.20;;;3.58;;
24813;SDS011;12904;50.088;11.414;2023-10-13T15:26:46;7.70;;;3.20;;
24813;SDS011;12904;50.088;11.414;2023-10-13T15:29:16;7.57;;;3.05;;
24813;SDS011;12904;50.088;11.414;2023-10-13T15:31:44;12.18;;;3.70;;
24813;SDS011;12904;50.088;11.414;2023-10-13T15:34:30;5.50;;;3.03;;